sensor_id;sensor_type;location;lat;lon;timestamp;P1;durP1;ratioP1;P2;durP2;ratioP2
51738;SDS011;37815;52.692;6.226;2023-05-10T00:02:09;2.10;;;1.65;;
51738;SDS011;37815;52.692;6.226;2023-05-10T00:07:09;2.40;;;1.70;;
51738;SDS011;37815;52.692;6.226;2023-05-10T00:12:10;2.65;;;2.10;;
51738;SDS011;37815;52.692;6.226;2023-05-10T00:17:11;2.88;;;2.00;;
51738;SDS011;37815;52.692;6.226;2023-05-10T00:22:11;2.92;;;1.90;;
51738;SDS011;37815;52.692;6.226;2023-05-10T00:27:12;3.10;;;1.67;;
51738;SDS011;37815;52.692;6.226;2023-05-10T00:32:12;2.65;;;2.00;;
51738;SDS011;37815;52.692;6.226;2023-05-10T00:37:13;2.55;;;1.80;;
51738;SDS011;37815;52.692;6.226;2023-05-10T00:42:14;2.33;;;1.80;;
51738;SDS011;37815;52.692;6.226;2023-05-10T00:47:15;2.08;;;1.58;;
51738;SDS011;37815;52.692;6.226;2023-05-10T00:52:16;2.30;;;1.80;;
51738;SDS011;37815;52.692;6.226;2023-05-10T00:57:17;2.20;;;1.60;;
51738;SDS011;37815;52.692;6.226;2023-05-10T01:02:17;2.03;;;1.75;;
51738;SDS011;37815;52.692;6.226;2023-05-10T01:07:18;2.38;;;1.60;;
51738;SDS011;37815;52.692;6.226;2023-05-10T01:12:19;1.75;;;1.45;;
51738;SDS011;37815;52.692;6.226;2023-05-10T01:17:20;1.88;;;1.60;;
51738;SDS011;37815;52.692;6.226;2023-05-10T01:33:46;2.03;;;1.48;;
51738;SDS011;37815;52.692;6.226;2023-05-10T01:39:17;3.40;;;1.40;;
51738;SDS011;37815;52.692;6.226;2023-05-10T01:44:31;1.80;;;1.40;;
51738;SDS011;37815;52.692;6.226;2023-05-10T01:49:45;1.33;;;1.23;;
51738;SDS011;37815;52.692;6.226;2023-05-10T01:54:59;1.80;;;1.55;;
51738;SDS011;37815;52.692;6.226;2023-05-10T02:00:03;1.52;;;1.30;;
51738;SDS011;37815;52.692;6.226;2023-05-10T02:05:05;1.35;;;1.10;;
51738;SDS011;37815;52.692;6.226;2023-05-10T02:10:07;1.40;;;1.15;;
51738;SDS011;37815;52.692;6.226;2023-05-10T02:15:10;1.35;;;1.10;;
51738;SDS011;37815;52.692;6.226;2023-05-10T02:20:12;1.50;;;1.10;;
51738;SDS011;37815;52.692;6.226;2023-05-10T02:25:15;1.13;;;1.00;;
51738;SDS011;37815;52.692;6.226;2023-05-10T02:30:19;1.30;;;1.00;;
51738;SDS011;37815;52.692;6.226;2023-05-10T02:35:20;1.52;;;1.02;;
51738;SDS011;37815;52.692;6.226;2023-05-10T02:40:22;1.60;;;1.00;;
51738;SDS011;37815;52.692;6.226;2023-05-10T02:45:24;1.00;;;0.90;;
51738;SDS011;37815;52.692;6.226;2023-05-10T02:50:28;1.17;;;1.00;;
51738;SDS011;37815;52.692;6.226;2023-05-10T02:55:32;1.58;;;1.10;;
51738;SDS011;37815;52.692;6.226;2023-05-10T03:00:37;0.82;;;0.75;;
51738;SDS011;37815;52.692;6.226;2023-05-10T03:05:38;1.75;;;0.80;;
51738;SDS011;37815;52.692;6.226;2023-05-10T03:10:41;1.25;;;1.00;;
51738;SDS011;37815;52.692;6.226;2023-05-10T03:15:54;1.88;;;1.10;;
51738;SDS011;37815;52.692;6.226;2023-05-10T03:21:07;1.27;;;1.00;;
51738;SDS011;37815;52.692;6.226;2023-05-10T03:26:14;1.63;;;0.95;;
51738;SDS011;37815;52.692;6.226;2023-05-10T03:31:25;1.30;;;1.00;;
51738;SDS011;37815;52.692;6.226;2023-05-10T03:36:26;1.23;;;1.10;;
51738;SDS011;37815;52.692;6.226;2023-05-10T03:41:26;1.10;;;1.00;;
51738;SDS011;37815;52.692;6.226;2023-05-10T03:46:27;1.40;;;1.00;;
51738;SDS011;37815;52.692;6.226;2023-05-10T03:51:27;1.45;;;1.00;;
51738;SDS011;37815;52.692;6.226;2023-05-10T03:56:28;1.35;;;1.00;;
51738;SDS011;37815;52.692;6.226;2023-05-10T04:01:29;1.02;;;0.93;;
51738;SDS011;37815;52.692;6.226;2023-05-10T04:06:29;1.65;;;0.93;;
51738;SDS011;37815;52.692;6.226;2023-05-10T04:11:30;1.58;;;1.10;;
51738;SDS011;37815;52.692;6.226;2023-05-10T04:16:31;1.52;;;0.95;;
51738;SDS011;37815;52.692;6.226;2023-05-10T04:21:32;1.20;;;0.98;;
51738;SDS011;37815;52.692;6.226;2023-05-10T04:26:32;2.75;;;1.10;;
51738;SDS011;37815;52.692;6.226;2023-05-10T04:31:33;1.85;;;0.90;;
51738;SDS011;37815;52.692;6.226;2023-05-10T04:36:34;1.30;;;0.90;;
51738;SDS011;37815;52.692;6.226;2023-05-10T04:41:36;2.83;;;2.08;;
51738;SDS011;37815;52.692;6.226;2023-05-10T04:46:38;3.40;;;1.23;;
51738;SDS011;37815;52.692;6.226;2023-05-10T04:51:38;1.50;;;0.90;;
51738;SDS011;37815;52.692;6.226;2023-05-10T04:56:39;2.15;;;1.00;;
51738;SDS011;37815;52.692;6.226;2023-05-10T05:01:40;2.17;;;1.20;;
51738;SDS011;37815;52.692;6.226;2023-05-10T05:06:41;1.10;;;1.00;;
51738;SDS011;37815;52.692;6.226;2023-05-10T05:11:42;3.25;;;1.20;;
51738;SDS011;37815;52.692;6.226;2023-05-10T05:16:42;1.95;;;1.10;;
51738;SDS011;37815;52.692;6.226;2023-05-10T05:21:43;1.98;;;1.10;;
51738;SDS011;37815;52.692;6.226;2023-05-10T05:26:43;1.65;;;1.00;;
51738;SDS011;37815;52.692;6.226;2023-05-10T05:31:44;1.05;;;0.95;;
51738;SDS011;37815;52.692;6.226;2023-05-10T05:36:45;1.52;;;1.00;;
51738;SDS011;37815;52.692;6.226;2023-05-10T05:41:45;1.60;;;1.05;;
51738;SDS011;37815;52.692;6.226;2023-05-10T05:46:46;1.50;;;1.08;;
51738;SDS011;37815;52.692;6.226;2023-05-10T05:51:47;1.73;;;1.15;;
51738;SDS011;37815;52.692;6.226;2023-05-10T05:56:49;1.65;;;1.13;;
51738;SDS011;37815;52.692;6.226;2023-05-10T06:01:50;1.77;;;1.00;;
51738;SDS011;37815;52.692;6.226;2023-05-10T06:06:51;2.05;;;1.23;;
51738;SDS011;37815;52.692;6.226;2023-05-10T06:11:51;1.60;;;1.08;;
51738;SDS011;37815;52.692;6.226;2023-05-10T06:16:52;1.27;;;0.93;;
51738;SDS011;37815;52.692;6.226;2023-05-10T06:21:52;1.55;;;1.40;;
51738;SDS011;37815;52.692;6.226;2023-05-10T06:26:53;2.08;;;1.25;;
51738;SDS011;37815;52.692;6.226;2023-05-10T06:31:53;1.63;;;0.98;;
51738;SDS011;37815;52.692;6.226;2023-05-10T06:36:54;1.73;;;1.15;;
51738;SDS011;37815;52.692;6.226;2023-05-10T06:41:54;4.93;;;1.50;;
51738;SDS011;37815;52.692;6.226;2023-05-10T06:46:55;3.10;;;1.27;;
51738;SDS011;37815;52.692;6.226;2023-05-10T06:51:56;1.77;;;1.20;;
51738;SDS011;37815;52.692;6.226;2023-05-10T06:56:56;1.90;;;1.10;;
51738;SDS011;37815;52.692;6.226;2023-05-10T07:01:57;2.45;;;1.40;;
51738;SDS011;37815;52.692;6.226;2023-05-10T07:06:58;2.03;;;1.65;;
51738;SDS011;37815;52.692;6.226;2023-05-10T07:11:58;2.30;;;1.10;;
51738;SDS011;37815;52.692;6.226;2023-05-10T07:16:59;1.48;;;1.15;;
51738;SDS011;37815;52.692;6.226;2023-05-10T07:22:01;2.40;;;1.38;;
51738;SDS011;37815;52.692;6.226;2023-05-10T07:27:01;1.73;;;1.17;;
51738;SDS011;37815;52.692;6.226;2023-05-10T07:32:02;3.35;;;1.25;;
51738;SDS011;37815;52.692;6.226;2023-05-10T07:37:02;1.65;;;1.30;;
51738;SDS011;37815;52.692;6.226;2023-05-10T07:42:03;3.08;;;1.33;;
51738;SDS011;37815;52.692;6.226;2023-05-10T07:47:04;1.85;;;1.20;;
51738;SDS011;37815;52.692;6.226;2023-05-10T07:52:04;1.88;;;1.27;;
51738;SDS011;37815;52.692;6.226;2023-05-10T07:57:05;1.75;;;1.10;;
51738;SDS011;37815;52.692;6.226;2023-05-10T08:02:06;1.42;;;1.15;;
51738;SDS011;37815;52.692;6.226;2023-05-10T08:07:06;2.17;;;1.10;;
51738;SDS011;37815;52.692;6.226;2023-05-10T08:12:07;1.38;;;0.90;;
51738;SDS011;37815;52.692;6.226;2023-05-10T08:17:07;1.70;;;1.20;;
51738;SDS011;37815;52.692;6.226;2023-05-10T08:22:08;2.17;;;1.00;;
51738;SDS011;37815;52.692;6.226;2023-05-10T08:27:09;1.52;;;1.23;;
51738;SDS011;37815;52.692;6.226;2023-05-10T08:32:09;1.10;;;1.00;;
51738;SDS011;37815;52.692;6.226;2023-05-10T08:37:10;4.03;;;1.30;;
51738;SDS011;37815;52.692;6.226;2023-05-10T08:42:13;2.13;;;1.02;;
51738;SDS011;37815;52.692;6.226;2023-05-10T08:47:18;1.70;;;0.93;;
51738;SDS011;37815;52.692;6.226;2023-05-10T08:52:20;2.17;;;1.23;;
51738;SDS011;37815;52.692;6.226;2023-05-10T08:57:24;2.00;;;1.27;;
51738;SDS011;37815;52.692;6.226;2023-05-10T09:02:25;3.53;;;1.17;;
51738;SDS011;37815;52.692;6.226;2023-05-10T09:07:26;1.88;;;1.38;;
51738;SDS011;37815;52.692;6.226;2023-05-10T09:12:27;2.13;;;1.40;;
51738;SDS011;37815;52.692;6.226;2023-05-10T09:17:28;2.13;;;1.27;;
51738;SDS011;37815;52.692;6.226;2023-05-10T09:22:30;1.23;;;1.10;;
51738;SDS011;37815;52.692;6.226;2023-05-10T09:27:31;3.83;;;1.20;;
51738;SDS011;37815;52.692;6.226;2023-05-10T09:32:46;2.72;;;1.27;;
51738;SDS011;37815;52.692;6.226;2023-05-10T09:37:51;1.70;;;1.05;;
51738;SDS011;37815;52.692;6.226;2023-05-10T09:47:58;4.65;;;2.60;;
51738;SDS011;37815;52.692;6.226;2023-05-10T09:53:01;4.25;;;2.30;;
51738;SDS011;37815;52.692;6.226;2023-05-10T09:58:03;4.68;;;2.67;;
51738;SDS011;37815;52.692;6.226;2023-05-10T10:03:11;5.38;;;2.70;;
51738;SDS011;37815;52.692;6.226;2023-05-10T10:08:16;3.78;;;2.30;;
51738;SDS011;37815;52.692;6.226;2023-05-10T10:13:17;3.70;;;2.30;;
51738;SDS011;37815;52.692;6.226;2023-05-10T10:18:18;4.53;;;2.30;;
51738;SDS011;37815;52.692;6.226;2023-05-10T10:28:40;4.05;;;1.70;;
51738;SDS011;37815;52.692;6.226;2023-05-10T10:33:56;2.53;;;2.13;;
51738;SDS011;37815;52.692;6.226;2023-05-10T10:39:08;3.60;;;1.95;;
51738;SDS011;37815;52.692;6.226;2023-05-10T10:49:26;3.53;;;2.13;;
51738;SDS011;37815;52.692;6.226;2023-05-10T10:54:27;5.32;;;2.28;;
51738;SDS011;37815;52.692;6.226;2023-05-10T10:59:28;2.90;;;2.03;;
51738;SDS011;37815;52.692;6.226;2023-05-10T11:04:29;4.90;;;2.00;;
51738;SDS011;37815;52.692;6.226;2023-05-10T11:09:42;2.55;;;1.77;;
51738;SDS011;37815;52.692;6.226;2023-05-10T11:14:43;3.30;;;1.85;;
51738;SDS011;37815;52.692;6.226;2023-05-10T11:25:10;4.00;;;2.53;;
51738;SDS011;37815;52.692;6.226;2023-05-10T11:30:11;4.93;;;3.08;;
51738;SDS011;37815;52.692;6.226;2023-05-10T11:35:12;5.82;;;3.67;;
51738;SDS011;37815;52.692;6.226;2023-05-10T11:40:13;6.40;;;3.45;;
51738;SDS011;37815;52.692;6.226;2023-05-10T11:45:14;4.90;;;2.70;;
51738;SDS011;37815;52.692;6.226;2023-05-10T11:50:15;6.47;;;3.25;;
51738;SDS011;37815;52.692;6.226;2023-05-10T11:55:17;4.90;;;2.90;;
51738;SDS011;37815;52.692;6.226;2023-05-10T12:00:17;5.10;;;3.22;;
51738;SDS011;37815;52.692;6.226;2023-05-10T12:05:18;6.82;;;3.20;;
51738;SDS011;37815;52.692;6.226;2023-05-10T12:10:25;5.05;;;3.15;;
51738;SDS011;37815;52.692;6.226;2023-05-10T12:15:26;4.32;;;3.00;;
51738;SDS011;37815;52.692;6.226;2023-05-10T12:20:28;5.88;;;3.00;;
51738;SDS011;37815;52.692;6.226;2023-05-10T12:25:32;5.22;;;2.85;;
51738;SDS011;37815;52.692;6.226;2023-05-10T12:30:35;5.15;;;2.83;;
51738;SDS011;37815;52.692;6.226;2023-05-10T12:35:54;3.53;;;2.35;;
51738;SDS011;37815;52.692;6.226;2023-05-10T12:40:56;5.68;;;2.60;;
51738;SDS011;37815;52.692;6.226;2023-05-10T12:46:14;4.13;;;2.55;;
51738;SDS011;37815;52.692;6.226;2023-05-10T12:51:16;3.90;;;2.17;;
51738;SDS011;37815;52.692;6.226;2023-05-10T12:56:19;3.45;;;2.28;;
51738;SDS011;37815;52.692;6.226;2023-05-10T13:01:20;3.17;;;2.35;;
51738;SDS011;37815;52.692;6.226;2023-05-10T13:06:21;3.70;;;2.13;;
51738;SDS011;37815;52.692;6.226;2023-05-10T13:11:21;3.53;;;2.38;;
51738;SDS011;37815;52.692;6.226;2023-05-10T13:16:22;4.95;;;2.28;;
51738;SDS011;37815;52.692;6.226;2023-05-10T13:21:22;4.50;;;3.00;;
51738;SDS011;37815;52.692;6.226;2023-05-10T13:26:25;6.78;;;2.97;;
51738;SDS011;37815;52.692;6.226;2023-05-10T13:31:25;4.65;;;2.80;;
51738;SDS011;37815;52.692;6.226;2023-05-10T13:36:26;5.72;;;2.60;;
51738;SDS011;37815;52.692;6.226;2023-05-10T13:41:26;4.32;;;2.60;;
51738;SDS011;37815;52.692;6.226;2023-05-10T13:46:27;4.93;;;3.10;;
51738;SDS011;37815;52.692;6.226;2023-05-10T13:51:28;4.55;;;2.72;;
51738;SDS011;37815;52.692;6.226;2023-05-10T13:56:29;4.60;;;2.47;;
51738;SDS011;37815;52.692;6.226;2023-05-10T14:01:30;3.45;;;2.47;;
51738;SDS011;37815;52.692;6.226;2023-05-10T14:06:31;4.25;;;2.92;;
51738;SDS011;37815;52.692;6.226;2023-05-10T14:11:31;4.13;;;2.70;;
51738;SDS011;37815;52.692;6.226;2023-05-10T14:16:32;4.40;;;2.60;;
51738;SDS011;37815;52.692;6.226;2023-05-10T14:21:33;3.55;;;2.47;;
51738;SDS011;37815;52.692;6.226;2023-05-10T14:26:33;6.15;;;3.97;;
51738;SDS011;37815;52.692;6.226;2023-05-10T14:31:34;9.55;;;3.83;;
51738;SDS011;37815;52.692;6.226;2023-05-10T14:36:35;7.43;;;4.05;;
51738;SDS011;37815;52.692;6.226;2023-05-10T14:41:35;10.65;;;5.28;;
51738;SDS011;37815;52.692;6.226;2023-05-10T14:46:37;7.05;;;4.20;;
51738;SDS011;37815;52.692;6.226;2023-05-10T14:51:38;10.82;;;4.90;;
51738;SDS011;37815;52.692;6.226;2023-05-10T14:56:38;8.43;;;4.13;;
51738;SDS011;37815;52.692;6.226;2023-05-10T15:01:41;6.60;;;4.25;;
51738;SDS011;37815;52.692;6.226;2023-05-10T15:06:42;9.93;;;4.78;;
51738;SDS011;37815;52.692;6.226;2023-05-10T15:11:42;8.18;;;4.15;;
51738;SDS011;37815;52.692;6.226;2023-05-10T15:16:44;5.85;;;3.03;;
51738;SDS011;37815;52.692;6.226;2023-05-10T15:21:45;4.72;;;2.80;;
51738;SDS011;37815;52.692;6.226;2023-05-10T15:26:45;6.32;;;3.17;;
51738;SDS011;37815;52.692;6.226;2023-05-10T15:31:46;6.88;;;3.40;;
51738;SDS011;37815;52.692;6.226;2023-05-10T15:36:47;6.00;;;3.33;;
51738;SDS011;37815;52.692;6.226;2023-05-10T15:41:48;7.47;;;3.67;;
51738;SDS011;37815;52.692;6.226;2023-05-10T15:46:49;6.90;;;3.75;;
51738;SDS011;37815;52.692;6.226;2023-05-10T15:51:49;6.63;;;3.15;;
51738;SDS011;37815;52.692;6.226;2023-05-10T15:56:50;7.72;;;4.10;;
51738;SDS011;37815;52.692;6.226;2023-05-10T16:01:50;6.72;;;3.58;;
51738;SDS011;37815;52.692;6.226;2023-05-10T16:06:51;6.15;;;3.42;;
51738;SDS011;37815;52.692;6.226;2023-05-10T16:11:52;7.63;;;3.50;;
51738;SDS011;37815;52.692;6.226;2023-05-10T16:16:53;7.13;;;3.17;;
51738;SDS011;37815;52.692;6.226;2023-05-10T16:21:53;7.65;;;3.65;;
51738;SDS011;37815;52.692;6.226;2023-05-10T16:26:54;7.18;;;3.63;;
51738;SDS011;37815;52.692;6.226;2023-05-10T16:31:55;7.68;;;3.45;;
51738;SDS011;37815;52.692;6.226;2023-05-10T16:36:55;5.95;;;3.47;;
51738;SDS011;37815;52.692;6.226;2023-05-10T16:41:56;4.25;;;3.10;;
51738;SDS011;37815;52.692;6.226;2023-05-10T16:46:56;5.05;;;3.25;;
51738;SDS011;37815;52.692;6.226;2023-05-10T16:51:57;7.97;;;3.80;;
51738;SDS011;37815;52.692;6.226;2023-05-10T16:56:57;6.50;;;3.28;;
51738;SDS011;37815;52.692;6.226;2023-05-10T17:01:58;5.90;;;3.67;;
51738;SDS011;37815;52.692;6.226;2023-05-10T17:06:59;6.45;;;3.10;;
51738;SDS011;37815;52.692;6.226;2023-05-10T17:11:59;5.45;;;3.30;;
51738;SDS011;37815;52.692;6.226;2023-05-10T17:17:02;6.00;;;3.00;;
51738;SDS011;37815;52.692;6.226;2023-05-10T17:22:03;5.70;;;3.30;;
51738;SDS011;37815;52.692;6.226;2023-05-10T17:27:03;5.28;;;2.80;;
51738;SDS011;37815;52.692;6.226;2023-05-10T17:32:04;4.55;;;2.97;;
51738;SDS011;37815;52.692;6.226;2023-05-10T17:37:05;5.10;;;2.92;;
51738;SDS011;37815;52.692;6.226;2023-05-10T17:42:07;7.82;;;4.05;;
51738;SDS011;37815;52.692;6.226;2023-05-10T17:47:08;6.13;;;2.92;;
51738;SDS011;37815;52.692;6.226;2023-05-10T17:52:09;8.25;;;2.75;;
51738;SDS011;37815;52.692;6.226;2023-05-10T17:57:09;5.50;;;3.08;;
51738;SDS011;37815;52.692;6.226;2023-05-10T18:02:10;5.32;;;2.80;;
51738;SDS011;37815;52.692;6.226;2023-05-10T18:07:10;6.90;;;3.53;;
51738;SDS011;37815;52.692;6.226;2023-05-10T18:12:11;4.50;;;2.88;;
51738;SDS011;37815;52.692;6.226;2023-05-10T18:17:12;4.25;;;2.33;;
51738;SDS011;37815;52.692;6.226;2023-05-10T18:22:12;5.55;;;2.40;;
51738;SDS011;37815;52.692;6.226;2023-05-10T18:27:13;3.20;;;2.30;;
51738;SDS011;37815;52.692;6.226;2023-05-10T18:32:15;4.15;;;2.55;;
51738;SDS011;37815;52.692;6.226;2023-05-10T18:37:15;5.90;;;2.70;;
51738;SDS011;37815;52.692;6.226;2023-05-10T18:42:16;3.65;;;2.40;;
51738;SDS011;37815;52.692;6.226;2023-05-10T18:47:19;3.25;;;2.22;;
51738;SDS011;37815;52.692;6.226;2023-05-10T18:52:20;4.13;;;2.33;;
51738;SDS011;37815;52.692;6.226;2023-05-10T18:57:21;4.03;;;2.55;;
51738;SDS011;37815;52.692;6.226;2023-05-10T19:02:21;3.67;;;2.33;;
51738;SDS011;37815;52.692;6.226;2023-05-10T19:07:24;4.07;;;2.35;;
51738;SDS011;37815;52.692;6.226;2023-05-10T19:12:24;3.10;;;2.00;;
51738;SDS011;37815;52.692;6.226;2023-05-10T19:17:25;3.70;;;2.70;;
51738;SDS011;37815;52.692;6.226;2023-05-10T19:22:26;4.70;;;2.90;;
51738;SDS011;37815;52.692;6.226;2023-05-10T19:27:26;3.15;;;2.28;;
51738;SDS011;37815;52.692;6.226;2023-05-10T19:32:27;3.22;;;2.00;;
51738;SDS011;37815;52.692;6.226;2023-05-10T19:37:28;3.83;;;2.22;;
51738;SDS011;37815;52.692;6.226;2023-05-10T19:42:28;4.15;;;2.63;;
51738;SDS011;37815;52.692;6.226;2023-05-10T19:47:29;3.55;;;2.03;;
51738;SDS011;37815;52.692;6.226;2023-05-10T19:52:29;3.33;;;2.10;;
51738;SDS011;37815;52.692;6.226;2023-05-10T19:57:30;2.70;;;2.15;;
51738;SDS011;37815;52.692;6.226;2023-05-10T20:02:30;3.47;;;2.50;;
51738;SDS011;37815;52.692;6.226;2023-05-10T20:07:31;3.28;;;2.17;;
51738;SDS011;37815;52.692;6.226;2023-05-10T20:12:32;4.15;;;2.35;;
51738;SDS011;37815;52.692;6.226;2023-05-10T20:17:33;3.95;;;2.45;;
51738;SDS011;37815;52.692;6.226;2023-05-10T20:22:34;3.20;;;2.30;;
51738;SDS011;37815;52.692;6.226;2023-05-10T20:27:35;5.78;;;2.67;;
51738;SDS011;37815;52.692;6.226;2023-05-10T20:32:36;3.45;;;2.38;;
51738;SDS011;37815;52.692;6.226;2023-05-10T20:37:38;3.78;;;2.80;;
51738;SDS011;37815;52.692;6.226;2023-05-10T20:42:39;2.90;;;2.35;;
51738;SDS011;37815;52.692;6.226;2023-05-10T20:47:40;4.40;;;2.92;;
51738;SDS011;37815;52.692;6.226;2023-05-10T20:52:40;3.45;;;2.30;;
51738;SDS011;37815;52.692;6.226;2023-05-10T20:57:46;4.13;;;2.83;;
51738;SDS011;37815;52.692;6.226;2023-05-10T21:02:47;4.57;;;2.70;;
51738;SDS011;37815;52.692;6.226;2023-05-10T21:07:48;4.05;;;2.72;;
51738;SDS011;37815;52.692;6.226;2023-05-10T21:12:48;3.03;;;2.42;;
51738;SDS011;37815;52.692;6.226;2023-05-10T21:17:49;3.65;;;2.90;;
51738;SDS011;37815;52.692;6.226;2023-05-10T21:22:50;4.63;;;2.97;;
51738;SDS011;37815;52.692;6.226;2023-05-10T21:27:50;4.43;;;2.75;;
51738;SDS011;37815;52.692;6.226;2023-05-10T21:32:51;5.22;;;2.92;;
51738;SDS011;37815;52.692;6.226;2023-05-10T21:37:52;4.40;;;2.72;;
51738;SDS011;37815;52.692;6.226;2023-05-10T21:42:53;4.55;;;2.97;;
51738;SDS011;37815;52.692;6.226;2023-05-10T21:47:54;5.13;;;2.88;;
51738;SDS011;37815;52.692;6.226;2023-05-10T21:52:54;5.05;;;3.15;;
51738;SDS011;37815;52.692;6.226;2023-05-10T21:57:55;3.97;;;2.63;;
51738;SDS011;37815;52.692;6.226;2023-05-10T22:02:56;5.47;;;3.10;;
51738;SDS011;37815;52.692;6.226;2023-05-10T22:07:57;6.43;;;3.42;;
51738;SDS011;37815;52.692;6.226;2023-05-10T22:12:58;4.15;;;3.10;;
51738;SDS011;37815;52.692;6.226;2023-05-10T22:17:59;4.70;;;2.92;;
51738;SDS011;37815;52.692;6.226;2023-05-10T22:22:59;3.92;;;2.75;;
51738;SDS011;37815;52.692;6.226;2023-05-10T22:28:00;4.03;;;3.00;;
51738;SDS011;37815;52.692;6.226;2023-05-10T22:33:01;4.35;;;3.13;;
51738;SDS011;37815;52.692;6.226;2023-05-10T22:38:01;4.32;;;3.15;;
51738;SDS011;37815;52.692;6.226;2023-05-10T22:43:02;4.68;;;3.10;;
51738;SDS011;37815;52.692;6.226;2023-05-10T22:48:03;3.25;;;2.63;;
51738;SDS011;37815;52.692;6.226;2023-05-10T22:53:04;4.10;;;2.92;;
51738;SDS011;37815;52.692;6.226;2023-05-10T22:58:05;3.85;;;2.80;;
51738;SDS011;37815;52.692;6.226;2023-05-10T23:03:06;4.43;;;3.00;;
51738;SDS011;37815;52.692;6.226;2023-05-10T23:08:07;5.93;;;2.70;;
51738;SDS011;37815;52.692;6.226;2023-05-10T23:13:07;3.30;;;2.70;;
51738;SDS011;37815;52.692;6.226;2023-05-10T23:18:08;4.07;;;2.90;;
51738;SDS011;37815;52.692;6.226;2023-05-10T23:23:09;4.03;;;2.67;;
51738;SDS011;37815;52.692;6.226;2023-05-10T23:28:10;3.92;;;2.67;;
51738;SDS011;37815;52.692;6.226;2023-05-10T23:33:10;5.05;;;3.10;;
51738;SDS011;37815;52.692;6.226;2023-05-10T23:38:13;3.72;;;2.60;;
51738;SDS011;37815;52.692;6.226;2023-05-10T23:43:14;3.75;;;2.40;;
51738;SDS011;37815;52.692;6.226;2023-05-10T23:48:15;3.88;;;2.42;;
51738;SDS011;37815;52.692;6.226;2023-05-10T23:53:16;3.60;;;2.80;;
51738;SDS011;37815;52.692;6.226;2023-05-10T23:58:16;3.65;;;2.50;;
